Time;durP1;ratioP1;P1;durP2;ratioP2;P2;SDS_P1;SDS_P2;PMS_P1;PMS_P2;Temp;Humidity;BMP_temperature;BMP_pressure;BME280_temperature;BME280_humidity;BME280_pressure;Samples;Min_cycle;Max_cycle;Signal;HPM_P1;HPM_P2
2023/05/13 00:00:16;;;;;;;4.53;2.25;;;10.50;99.90;;;9.36;70.08;101853.91;5028112;28;20418;-78
2023/05/13 00:02:42;;;;;;;2.83;1.90;;;10.50;99.90;;;9.33;70.49;101856.63;5027800;28;20068;-78
2023/05/13 00:05:08;;;;;;;5.85;1.60;;;10.50;99.90;;;9.31;70.45;101855.81;5044640;28;20029;-78
2023/05/13 00:07:34;;;;;;;3.28;1.52;;;10.40;99.90;;;9.30;70.41;101850.56;5011567;28;20083;-78
2023/05/13 00:10:00;;;;;;;3.35;2.00;;;10.40;99.90;;;9.27;70.35;101851.53;5008550;28;20105;-77
2023/05/13 00:12:26;;;;;;;4.47;1.80;;;10.40;99.90;;;9.26;71.09;101847.16;5018881;28;20038;-77
2023/05/13 00:14:52;;;;;;;3.90;1.60;;;10.40;99.90;;;9.25;70.89;101850.69;5012049;28;20042;-78
2023/05/13 00:17:17;;;;;;;2.60;1.58;;;10.40;99.90;;;9.25;70.40;101850.69;5018587;28;20045;-77
2023/05/13 00:19:43;;;;;;;3.30;1.58;;;10.40;99.90;;;9.23;70.41;101855.97;5029256;28;20068;-79
2023/05/13 00:22:09;;;;;;;3.10;1.98;;;10.40;99.90;;;9.19;70.20;101853.44;5028917;28;20172;-77
2023/05/13 00:24:35;;;;;;;3.05;1.67;;;10.30;99.90;;;9.17;70.29;101850.00;5031181;28;20094;-77
2023/05/13 00:27:01;;;;;;;3.05;1.50;;;10.30;99.90;;;9.14;70.87;101856.19;5030098;28;20514;-78
2023/05/13 00:29:27;;;;;;;2.38;1.58;;;10.30;99.90;;;9.14;70.22;101858.81;5013282;28;20057;-77
2023/05/13 00:31:53;;;;;;;3.63;2.05;;;10.30;99.90;;;9.11;70.01;101853.63;5027019;28;20038;-78
2023/05/13 00:34:19;;;;;;;3.92;1.63;;;10.30;99.90;;;9.06;70.41;101850.22;5030266;28;20029;-77
2023/05/13 00:36:44;;;;;;;2.22;1.60;;;10.20;99.90;;;9.03;70.35;101858.19;5021172;28;20036;-78
2023/05/13 00:39:10;;;;;;;2.42;1.50;;;10.20;99.90;;;8.99;70.52;101851.28;5029386;28;20037;-78
2023/05/13 00:41:39;;;;;;;3.45;1.73;;;10.10;99.90;;;8.97;70.57;101853.06;5030742;28;20064;-78
2023/05/13 00:44:05;;;;;;;3.45;1.60;;;10.10;99.90;;;8.92;70.51;101861.06;4997704;28;20037;-78
2023/05/13 00:46:32;;;;;;;3.97;1.77;;;10.10;99.90;;;8.89;70.56;101857.63;5030255;28;20607;-78
2023/05/13 00:48:59;;;;;;;2.67;1.67;;;10.00;99.90;;;8.88;70.31;101850.66;5029420;28;20051;-77
2023/05/13 00:51:25;;;;;;;3.17;1.73;;;10.00;99.90;;;8.87;69.97;101854.16;5029940;28;20049;-77
2023/05/13 00:53:52;;;;;;;3.85;1.60;;;10.00;99.90;;;8.85;70.16;101861.22;5027893;28;20083;-78
2023/05/13 00:56:20;;;;;;;2.22;1.50;;;10.00;99.90;;;8.81;69.97;101858.66;5016454;28;20033;-77
2023/05/13 00:58:46;;;;;;;3.40;1.60;;;10.00;99.90;;;8.79;70.23;101857.84;5021869;28;20049;-78
2023/05/13 01:01:33;;;;;;;2.05;1.42;;;10.00;99.90;;;8.81;70.19;101861.28;5029527;28;20042;-78
2023/05/13 01:04:09;;;;;;;2.22;1.38;;;9.90;99.90;;;8.80;69.97;101856.06;5013726;28;20048;-78
2023/05/13 01:07:00;;;;;;;6.20;1.60;;;9.90;99.90;;;8.80;70.23;101861.31;5035999;28;20042;-78
2023/05/13 01:09:54;;;;;;;3.97;1.17;;;9.90;99.90;;;8.77;70.37;101862.25;5044618;28;20037;-78
2023/05/13 01:12:38;;;;;;;4.75;2.45;;;9.90;99.90;;;8.76;70.12;101868.38;5044271;28;20042;-77
2023/05/13 01:15:17;;;;;;;5.10;1.45;;;9.90;99.90;;;8.75;69.96;101866.66;5028703;28;20037;-78
2023/05/13 01:17:56;;;;;;;10.20;2.00;;;9.90;99.90;;;8.74;69.91;101864.91;5026265;28;20088;-78
2023/05/13 01:20:23;;;;;;;2.35;1.50;;;9.90;99.90;;;8.72;70.23;101865.84;5030777;28;20667;-78
2023/05/13 01:22:49;;;;;;;3.38;1.63;;;9.90;99.90;;;8.69;70.13;101861.53;5028028;28;20070;-78
2023/05/13 01:25:15;;;;;;;3.40;1.88;;;9.80;99.90;;;8.66;69.88;101861.63;5027478;28;20048;-78
2023/05/13 01:27:41;;;;;;;4.03;2.10;;;9.80;99.90;;;8.63;70.16;101870.38;5028512;28;20728;-78
2023/05/13 01:30:09;;;;;;;4.95;1.65;;;9.70;99.90;;;8.59;69.90;101867.84;5029214;28;20030;-78
2023/05/13 01:32:36;;;;;;;2.80;1.60;;;9.70;99.90;;;8.55;69.87;101866.19;5026343;28;20452;-77
2023/05/13 01:35:03;;;;;;;4.40;2.22;;;9.70;99.90;;;8.51;70.09;101875.00;5028877;28;21408;-78
2023/05/13 01:37:29;;;;;;;4.30;1.92;;;9.60;99.90;;;8.46;69.66;101871.63;5027246;28;20044;-78
2023/05/13 01:39:55;;;;;;;6.22;1.90;;;9.60;99.90;;;8.40;70.31;101872.56;5042928;23;20033;-75
2023/05/13 01:42:23;;;;;;;2.58;1.70;;;9.60;99.90;;;8.35;70.06;101871.81;5012080;28;20037;-75
2023/05/13 01:44:50;;;;;;;2.72;1.67;;;9.50;99.90;;;8.30;70.03;101873.66;5001503;28;20418;-74
2023/05/13 01:47:16;;;;;;;3.60;1.77;;;9.50;99.90;;;8.28;70.38;101875.44;4990369;28;20030;-75
2023/05/13 01:49:42;;;;;;;2.40;1.48;;;9.50;99.90;;;8.27;70.47;101876.31;5009593;28;20127;-75
2023/05/13 01:52:08;;;;;;;4.20;1.55;;;9.40;99.90;;;8.23;70.64;101878.16;5003449;28;20044;-75
2023/05/13 01:54:34;;;;;;;1.92;1.30;;;9.40;99.90;;;8.19;70.95;101885.22;4999264;28;20265;-74
2023/05/13 01:57:00;;;;;;;4.07;2.08;;;9.40;99.90;;;8.14;70.35;101873.94;4996977;28;20042;-75
2023/05/13 01:59:25;;;;;;;2.33;1.27;;;9.30;99.90;;;8.10;70.28;101877.50;5007473;28;20034;-75
2023/05/13 02:01:51;;;;;;;4.25;2.00;;;9.30;99.90;;;8.02;70.35;101875.00;5008933;28;20034;-75
2023/05/13 02:04:17;;;;;;;6.18;1.70;;;9.20;99.90;;;7.94;70.36;101876.91;5015903;28;20049;-75
2023/05/13 02:06:44;;;;;;;6.25;2.17;;;9.10;99.90;;;7.88;70.25;101879.63;4982420;28;20050;-75
2023/05/13 02:09:10;;;;;;;2.80;1.70;;;9.10;99.90;;;7.82;70.44;101877.13;5000823;28;20092;-75
2023/05/13 02:11:36;;;;;;;2.65;1.60;;;9.00;99.90;;;7.77;70.79;101877.19;4996476;28;20033;-75
2023/05/13 02:14:02;;;;;;;2.42;1.90;;;9.00;99.90;;;7.74;70.36;101874.63;5004961;28;20120;-75
2023/05/13 02:16:28;;;;;;;3.17;1.55;;;8.90;99.90;;;7.70;70.70;101872.06;5010089;28;20049;-74
2023/05/13 02:18:54;;;;;;;2.20;1.30;;;8.90;99.90;;;7.66;70.77;101876.50;4990025;28;20037;-76
2023/05/13 02:21:20;;;;;;;2.08;1.40;;;8.90;99.90;;;7.64;70.51;101877.41;4989932;28;20049;-75
2023/05/13 02:23:46;;;;;;;4.25;2.03;;;8.80;99.90;;;7.65;71.50;101876.53;5008436;28;20033;-74
2023/05/13 02:26:12;;;;;;;3.08;1.30;;;8.90;99.90;;;7.63;71.36;101870.47;5008212;28;20744;-75
2023/05/13 02:28:38;;;;;;;2.58;1.50;;;8.80;99.90;;;7.63;71.29;101878.31;5008227;28;20037;-75
2023/05/13 02:31:03;;;;;;;2.83;1.60;;;8.80;99.90;;;7.64;71.38;101877.41;4989309;28;20049;-76
2023/05/13 02:33:29;;;;;;;3.80;1.65;;;8.80;99.90;;;7.64;72.21;101870.41;5006806;28;20041;-75
2023/05/13 02:35:55;;;;;;;4.60;1.73;;;8.80;99.90;;;7.66;72.32;101878.25;5007171;28;20168;-75
2023/05/13 02:38:21;;;;;;;2.85;1.30;;;8.80;99.90;;;7.65;71.96;101880.03;5007441;28;20053;-75
2023/05/13 02:40:47;;;;;;;2.88;1.58;;;8.80;99.90;;;7.63;71.95;101873.94;5007601;28;20569;-75
2023/05/13 02:43:13;;;;;;;3.42;1.88;;;8.80;99.90;;;7.60;71.65;101873.97;4988597;28;20502;-75
2023/05/13 02:45:41;;;;;;;4.35;2.22;;;8.80;99.90;;;7.57;71.39;101877.50;5002740;28;20038;-75
2023/05/13 02:48:09;;;;;;;2.92;1.60;;;8.80;99.90;;;7.56;71.86;101878.41;5009757;28;20072;-75
2023/05/13 02:50:35;;;;;;;2.25;1.33;;;8.70;99.90;;;7.58;71.97;101879.25;4983407;28;20042;-75
2023/05/13 02:53:01;;;;;;;2.33;1.65;;;8.80;99.90;;;7.60;71.65;101879.22;4999968;28;20580;-76
2023/05/13 02:55:27;;;;;;;3.15;1.83;;;8.80;99.90;;;7.60;71.74;101884.44;5005703;28;20036;-75
2023/05/13 02:57:53;;;;;;;3.20;1.40;;;8.80;99.90;;;7.60;71.23;101881.81;4991830;28;20571;-75
2023/05/13 03:00:19;;;;;;;2.67;1.55;;;8.80;99.90;;;7.62;71.59;101879.19;5000879;28;20551;-75
2023/05/13 03:02:44;;;;;;;4.40;2.03;;;8.80;99.90;;;7.62;71.18;101879.19;4997501;28;20426;-75
2023/05/13 03:05:10;;;;;;;1.95;1.30;;;8.80;99.90;;;7.62;71.03;101882.66;4981640;28;20113;-75
2023/05/13 03:07:36;;;;;;;1.75;1.55;;;8.80;99.90;;;7.59;70.65;101875.72;4986093;28;20042;-75
2023/05/13 03:10:02;;;;;;;2.83;1.83;;;8.80;99.90;;;7.58;71.26;101887.13;5006775;28;20038;-75
2023/05/13 03:12:28;;;;;;;2.40;1.73;;;8.70;99.90;;;7.56;70.47;101888.91;5006497;28;20049;-75
2023/05/13 03:14:54;;;;;;;3.03;1.50;;;8.80;99.90;;;7.57;70.45;101881.88;5007191;28;20060;-75
2023/05/13 03:17:20;;;;;;;3.85;1.85;;;8.80;99.90;;;7.56;70.71;101886.28;4989322;28;20037;-75
2023/05/13 03:19:46;;;;;;;3.85;2.08;;;8.70;99.90;;;7.58;70.99;101888.84;4979936;28;20038;-75
2023/05/13 03:22:12;;;;;;;2.35;1.50;;;8.70;99.90;;;7.63;71.16;101887.03;4996160;28;20132;-75
2023/05/13 03:24:39;;;;;;;3.38;1.35;;;8.80;99.90;;;7.69;70.79;101893.94;4989247;28;20040;-75
2023/05/13 03:27:04;;;;;;;4.70;1.58;;;8.80;99.90;;;7.76;70.97;101896.44;5009526;28;20033;-75
2023/05/13 03:29:30;;;;;;;5.03;1.67;;;8.90;99.90;;;7.85;70.43;101899.81;5008786;28;20042;-75
2023/05/13 03:31:56;;;;;;;2.70;1.63;;;9.00;99.90;;;7.94;69.95;101902.28;4981349;28;20113;-75
2023/05/13 03:34:22;;;;;;;3.35;1.33;;;9.20;99.90;;;8.11;69.65;101901.97;4996541;28;20051;-75
2023/05/13 03:36:48;;;;;;;2.08;1.20;;;9.30;99.90;;;8.26;69.40;101909.56;5006935;28;20101;-75
2023/05/13 03:39:15;;;;;;;1.67;1.27;;;9.30;99.90;;;8.34;68.88;101912.94;5007604;28;20124;-75
2023/05/13 03:41:41;;;;;;;2.72;1.48;;;9.40;99.90;;;8.41;68.70;101904.06;5006677;28;20510;-75
2023/05/13 03:44:07;;;;;;;3.55;1.45;;;9.40;99.90;;;8.53;68.96;101917.84;4995959;28;20047;-75
2023/05/13 03:46:33;;;;;;;2.38;1.35;;;9.60;99.90;;;8.62;68.82;101922.94;4994177;28;20060;-75
2023/05/13 03:48:59;;;;;;;2.22;1.33;;;9.70;99.90;;;8.73;68.27;101926.22;4969582;28;20030;-75
2023/05/13 03:51:25;;;;;;;2.83;1.50;;;9.80;99.90;;;8.82;67.59;101923.41;5006696;28;20755;-75
2023/05/13 03:53:51;;;;;;;3.17;1.63;;;9.90;99.90;;;8.94;67.78;101917.06;5007113;28;20090;-75
2023/05/13 03:56:17;;;;;;;4.82;1.70;;;9.90;99.90;;;9.07;67.47;101919.41;5007861;28;20134;-75
2023/05/13 03:58:42;;;;;;;3.63;1.83;;;10.10;99.90;;;9.22;67.03;101930.47;4997951;28;20044;-75
2023/05/13 04:01:08;;;;;;;6.68;1.60;;;10.40;99.90;;;9.62;66.29;101940.06;5009719;28;20033;-75
2023/05/13 04:03:34;;;;;;;1.85;1.35;;;11.50;99.90;;;11.16;64.86;101972.09;4992491;28;20038;-75
2023/05/13 04:06:00;;;;;;;2.95;1.65;;;13.00;99.90;;;13.02;61.02;101995.06;5010166;28;20040;-75
2023/05/13 04:08:26;;;;;;;5.50;1.70;;;14.50;99.90;;;14.84;56.49;102013.41;5009218;28;20041;-75
2023/05/13 04:10:52;;;;;;;4.60;1.48;;;15.90;99.70;;;16.50;53.38;102033.91;5011527;28;20441;-75
2023/05/13 04:13:18;;;;;;;2.55;1.40;;;17.20;96.70;;;17.87;49.77;102042.66;5000623;28;20057;-75
2023/05/13 04:15:44;;;;;;;3.58;1.73;;;18.30;95.30;;;19.14;47.36;102064.50;4993045;28;20088;-75
2023/05/13 04:18:10;;;;;;;3.45;1.50;;;19.30;93.60;;;20.22;45.34;102073.72;5000551;28;20073;-75
2023/05/13 04:20:39;;;;;;;3.97;2.08;;;20.20;91.70;;;21.09;43.32;102073.16;5010970;28;20061;-75
2023/05/13 04:23:05;;;;;;;4.28;1.90;;;21.00;90.40;;;21.95;41.70;102084.94;5018435;28;20028;-75
2023/05/13 04:25:31;;;;;;;4.55;2.03;;;21.70;90.20;;;22.96;40.80;102100.66;5010437;28;20787;-75
2023/05/13 04:27:57;;;;;;;6.10;1.80;;;22.50;88.10;;;23.90;39.23;102109.38;5008966;28;20040;-75
2023/05/13 04:30:23;;;;;;;;;;;22.70;87.80;;;24.49;36.99;102118.91;5010201;28;20425;-75
2023/05/13 04:32:51;;;;;;;2.38;1.50;;;23.60;81.70;;;24.90;36.31;102117.22;5001124;28;19922;-75
2023/05/13 04:35:17;;;;;;;2.42;1.60;;;24.10;83.40;;;25.83;36.33;102132.50;4993276;28;20048;-75
2023/05/13 04:37:43;;;;;;;3.95;2.15;;;24.60;80.70;;;26.43;35.36;102145.13;4993644;28;21448;-76
2023/05/13 04:40:10;;;;;;;5.22;2.33;;;25.10;81.10;;;27.16;34.50;102149.06;5009367;28;20034;-75
2023/05/13 04:42:36;;;;;;;2.75;1.67;;;25.40;74.90;;;26.76;33.47;102142.03;5010556;28;20080;-76
2023/05/13 04:45:02;;;;;;;2.85;1.85;;;25.60;74.40;;;27.38;33.15;102161.41;5008118;28;20636;-75
2023/05/13 04:47:27;;;;;;;;;;;25.60;79.40;;;27.65;31.61;102169.75;5010123;28;20121;-75
2023/05/13 04:49:53;;;;;;;2.67;1.52;;;26.20;76.80;;;28.76;32.27;102190.31;5000394;28;19965;-76
2023/05/13 04:52:20;;;;;;;;;;;26.20;79.40;;;28.47;29.83;102176.97;5009362;28;20038;-75
2023/05/13 04:54:46;;;;;;;2.75;1.88;;;26.60;72.90;;;28.65;30.79;102181.56;4996407;28;19925;-76
2023/05/13 04:57:12;;;;;;;;;;;26.60;74.70;;;29.52;29.81;102202.41;5011420;28;20041;-75
2023/05/13 04:59:37;;;;;;;2.47;1.73;;;27.20;73.80;;;29.95;29.89;102206.06;5012470;28;20332;-75
2023/05/13 05:02:03;;;;;;;5.55;2.03;;;27.50;72.60;;;30.76;29.84;102225.50;5007996;28;20503;-75
2023/05/13 05:04:29;;;;;;;3.03;1.63;;;27.90;72.00;;;30.88;29.70;102224.16;4999813;28;20489;-75
2023/05/13 05:06:55;;;;;;;2.15;1.55;;;28.10;71.50;;;30.54;29.31;102226.97;5008692;28;20033;-76
2023/05/13 05:09:21;;;;;;;;;;;28.20;73.40;;;31.95;28.21;102238.44;4996871;28;20525;-76
2023/05/13 05:11:49;;;;;;;3.88;1.90;;;28.80;73.60;;;33.05;28.03;102259.31;5012442;28;19913;-75
2023/05/13 05:14:15;;;;;;;4.20;2.10;;;29.30;70.50;;;33.06;27.08;102258.25;5000607;28;20421;-76
2023/05/13 05:16:41;;;;;;;2.70;1.13;;;29.70;70.30;;;33.78;27.21;102262.38;5007191;28;20045;-75
2023/05/13 05:19:07;;;;;;;2.13;1.05;;;29.80;67.70;;;32.74;27.63;102259.34;5002814;28;20033;-75
2023/05/13 05:21:33;;;;;;;2.00;1.30;;;30.00;70.20;;;34.02;26.76;102270.28;5010811;28;20113;-75
2023/05/13 05:24:00;;;;;;;8.95;2.08;;;30.30;70.20;;;34.47;26.51;102278.41;5004819;28;20184;-76
2023/05/13 05:26:26;;;;;;;3.60;1.98;;;29.90;66.20;;;32.58;27.27;102265.78;5005386;28;20034;-75
2023/05/13 05:28:52;;;;;;;5.47;2.05;;;30.00;68.80;;;33.31;26.42;102275.31;5008895;28;20179;-75
2023/05/13 05:31:18;;;;;;;4.65;1.73;;;30.10;69.60;;;33.65;26.59;102285.75;5004594;28;20132;-75
2023/05/13 05:33:44;;;;;;;4.57;2.05;;;29.90;66.10;;;32.07;27.47;102269.78;4976165;28;20048;-75
2023/05/13 05:36:09;;;;;;;2.40;1.30;;;29.70;67.50;;;31.99;26.49;102268.94;4997495;28;20119;-76
2023/05/13 05:38:35;;;;;;;3.10;1.30;;;29.50;67.10;;;31.79;27.30;102265.72;5010574;28;20124;-75
2023/05/13 05:41:01;;;;;;;3.20;1.35;;;29.20;67.10;;;30.96;28.27;102255.94;4997805;28;20091;-75
2023/05/13 05:43:34;;;;;;;3.67;1.35;;;29.00;68.60;;;32.01;27.92;102266.88;4982836;28;20033;-76
2023/05/13 05:46:00;;;;;;;5.38;1.48;;;29.20;67.80;;;32.47;27.28;102278.75;5007640;28;20486;-76
2023/05/13 05:48:26;;;;;;;2.83;1.20;;;29.20;66.70;;;30.27;28.60;102256.09;5001140;28;20040;-75
2023/05/13 05:50:51;;;;;;;2.13;1.42;;;29.10;68.50;;;31.58;28.16;102266.31;4996564;28;20092;-76
2023/05/13 05:53:20;;;;;;;11.98;1.52;;;29.30;69.80;;;32.65;27.80;102281.22;5008860;28;20040;-75
2023/05/13 05:55:46;;;;;;;2.20;1.70;;;29.60;69.00;;;32.84;27.39;102282.63;4974675;28;20728;-75
2023/05/13 05:58:15;;;;;;;3.40;1.70;;;29.90;68.60;;;32.88;26.95;102288.59;4991000;28;20049;-75
2023/05/13 06:00:41;;;;;;;2.17;1.52;;;30.20;67.70;;;33.32;26.43;102297.97;5015221;28;20030;-76
2023/05/13 06:03:07;;;;;;;2.33;1.65;;;30.40;67.20;;;32.07;27.01;102277.94;4997399;28;20049;-76
2023/05/13 06:05:34;;;;;;;3.55;2.15;;;30.20;68.60;;;32.84;27.81;102285.38;5008157;28;20514;-75
2023/05/13 06:07:59;;;;;;;3.08;1.60;;;30.40;67.20;;;31.55;27.91;102270.22;4999516;28;20038;-76
2023/05/13 06:10:27;;;;;;;3.15;1.80;;;30.50;68.80;;;33.34;26.99;102288.56;5008081;28;20541;-76
2023/05/13 06:12:53;;;;;;;3.40;1.75;;;30.80;68.20;;;33.62;26.55;102297.03;4998788;28;20500;-75
2023/05/13 06:15:19;;;;;;;3.00;1.63;;;31.20;67.70;;;33.76;26.68;102299.94;5013519;28;20054;-75
2023/05/13 06:17:45;;;;;;;4.80;1.52;;;31.40;65.10;;;33.24;26.83;102290.69;4988280;28;20087;-75
2023/05/13 06:20:11;;;;;;;5.57;1.80;;;31.50;64.00;;;31.56;26.97;102281.97;4973589;28;20037;-75
2023/05/13 06:22:40;;;;;;;1.58;1.10;;;31.20;65.20;;;32.41;27.42;102281.34;4998264;28;20571;-75
2023/05/13 06:25:06;;;;;;;2.38;1.00;;;31.20;64.00;;;32.21;27.44;102284.50;4999697;28;20113;-75
2023/05/13 06:27:32;;;;;;;1.88;1.05;;;31.30;65.60;;;33.04;27.16;102280.25;4997997;28;20041;-75
2023/05/13 06:29:59;;;;;;;1.92;1.00;;;31.90;66.60;;;33.65;26.27;102302.13;4984789;28;20486;-76
2023/05/13 06:32:25;;;;;;;1.52;1.10;;;31.80;62.70;;;31.25;27.89;102280.78;4994078;28;20116;-75
2023/05/13 06:34:51;;;;;;;1.70;0.93;;;31.20;63.70;;;30.81;29.10;102262.00;4976007;28;20037;-75
2023/05/13 06:37:18;;;;;;;2.22;1.30;;;31.20;66.20;;;32.68;27.84;102275.44;4999363;28;20106;-75
2023/05/13 06:39:45;;;;;;;1.35;1.02;;;31.70;65.30;;;33.18;27.20;102284.13;4983050;28;20033;-75
2023/05/13 06:42:10;;;;;;;4.93;1.33;;;31.80;62.20;;;32.16;27.16;102277.88;5003715;28;20076;-75
2023/05/13 06:44:36;;;;;;;2.90;1.25;;;32.20;65.10;;;33.52;26.19;102301.88;4987600;28;20053;-75
2023/05/13 06:47:03;;;;;;;2.38;1.50;;;32.60;65.20;;;34.46;26.23;102321.31;5008473;28;20046;-76
2023/05/13 06:49:29;;;;;;;1.40;0.95;;;32.90;61.50;;;34.08;25.82;102305.06;5000811;28;20406;-76
2023/05/13 06:51:55;;;;;;;1.42;1.00;;;33.20;62.20;;;33.96;26.07;102298.38;4995897;28;20036;-76
2023/05/13 06:54:22;;;;;;;2.20;1.30;;;33.40;62.20;;;34.57;25.62;102316.41;5008611;28;20044;-75
2023/05/13 06:56:49;;;;;;;1.27;1.00;;;33.50;60.10;;;33.93;26.06;102301.47;4963011;28;20022;-75
2023/05/13 06:59:15;;;;;;;4.85;1.13;;;33.60;59.60;;;33.99;25.72;102311.63;4998147;28;20022;-75
2023/05/13 07:01:41;;;;;;;2.58;1.08;;;33.50;59.50;;;33.40;24.80;102308.81;4996184;28;20029;-75
2023/05/13 07:04:07;;;;;;;1.75;1.20;;;33.20;60.70;;;33.06;26.52;102307.38;4991687;28;20390;-75
2023/05/13 07:06:33;;;;;;;1.77;1.38;;;33.00;59.10;;;31.93;26.63;102292.25;4991033;28;20574;-76
2023/05/13 07:08:59;;;;;;;1.35;1.02;;;32.70;61.40;;;32.69;26.71;102289.91;5008972;28;20021;-76
2023/05/13 07:11:26;;;;;;;1.85;1.10;;;32.90;61.10;;;33.10;25.83;102297.81;5005229;28;20069;-78
2023/05/13 07:13:52;;;;;;;2.33;1.30;;;33.10;60.70;;;33.65;25.80;102304.88;4989176;28;20030;-75
2023/05/13 07:16:17;;;;;;;1.90;1.15;;;33.20;62.00;;;33.94;25.93;102311.38;4990485;28;20069;-74
2023/05/13 07:18:43;;;;;;;4.05;1.83;;;33.60;61.80;;;34.25;25.51;102308.44;5013214;28;20040;-73
2023/05/13 07:21:09;;;;;;;2.50;1.10;;;33.60;59.00;;;33.41;25.77;102292.25;5010442;28;20544;-76
2023/05/13 07:23:35;;;;;;;0.98;0.90;;;33.40;57.10;;;32.30;26.35;102279.88;4990219;28;20989;-71
2023/05/13 07:26:01;;;;;;;1.00;0.68;;;33.00;58.60;;;32.28;26.58;102276.47;5006437;28;20025;-74
2023/05/13 07:28:27;;;;;;;4.63;1.50;;;32.50;57.90;;;30.61;27.58;102257.91;5000584;28;20030;-73
2023/05/13 07:30:53;;;;;;;2.40;1.27;;;32.30;60.40;;;31.78;26.82;102269.50;5009967;28;20044;-73
2023/05/13 07:33:19;;;;;;;1.42;1.08;;;32.00;58.80;;;30.78;27.16;102266.97;4990484;28;20046;-73
2023/05/13 07:35:45;;;;;;;1.60;1.15;;;31.60;58.70;;;30.52;27.57;102256.16;4998817;28;20037;-74
2023/05/13 07:38:11;;;;;;;1.63;0.90;;;31.50;61.10;;;31.19;27.24;102253.38;4993085;28;20049;-73
2023/05/13 07:40:37;;;;;;;3.45;1.27;;;31.30;61.10;;;31.13;27.20;102254.94;5015417;28;20503;-73
2023/05/13 07:43:02;;;;;;;1.83;1.20;;;31.20;59.20;;;30.66;27.25;102248.22;5007543;28;20041;-73
2023/05/13 07:45:28;;;;;;;1.70;1.20;;;31.20;59.90;;;30.87;27.30;102244.22;5013555;28;20057;-74
2023/05/13 07:47:55;;;;;;;2.55;1.00;;;31.30;59.70;;;30.56;27.63;102241.25;5011350;28;20397;-74
2023/05/13 07:50:21;;;;;;;2.65;1.20;;;31.40;61.10;;;31.15;27.33;102252.88;5000779;28;20125;-75
2023/05/13 07:52:48;;;;;;;2.25;1.10;;;31.30;61.20;;;31.02;27.37;102247.13;5015711;28;20100;-75
2023/05/13 07:55:14;;;;;;;1.13;0.80;;;31.30;60.20;;;31.15;26.53;102249.31;5003929;28;20037;-75
2023/05/13 07:57:40;;;;;;;1.38;0.90;;;31.20;59.70;;;29.99;27.72;102233.75;5001650;28;20081;-75
2023/05/13 08:00:07;;;;;;;1.42;1.00;;;30.40;60.20;;;29.00;28.55;102213.22;5011429;28;20030;-75
2023/05/13 08:02:34;;;;;;;0.95;0.80;;;30.20;60.50;;;28.73;28.54;102209.59;4978902;28;20034;-75
2023/05/13 08:05:00;;;;;;;1.80;1.17;;;29.80;59.50;;;29.25;28.01;102208.88;5009340;28;20693;-75
2023/05/13 08:07:27;;;;;;;1.63;1.20;;;29.70;58.80;;;28.94;27.80;102213.84;4989540;28;20037;-75
2023/05/13 08:09:55;;;;;;;1.95;1.52;;;29.70;60.40;;;29.36;28.02;102211.31;4990864;28;20485;-75
2023/05/13 08:12:21;;;;;;;2.78;1.13;;;29.30;60.20;;;28.40;28.50;102193.00;5010980;28;20033;-75
2023/05/13 08:14:47;;;;;;;11.82;1.50;;;29.10;61.20;;;28.78;28.58;102196.41;4984482;28;20608;-75
2023/05/13 08:17:12;;;;;;;1.42;1.00;;;29.00;62.10;;;28.72;28.50;102196.19;5014671;28;20030;-75
2023/05/13 08:19:39;;;;;;;3.80;1.50;;;28.90;60.00;;;28.14;28.59;102192.88;5002307;28;20091;-75
2023/05/13 08:22:05;;;;;;;1.30;1.08;;;28.70;60.90;;;28.26;28.44;102193.50;4992391;28;20026;-75
2023/05/13 08:24:31;;;;;;;1.50;1.13;;;28.40;59.40;;;27.00;28.73;102179.41;4994534;28;20445;-75
2023/05/13 08:26:57;;;;;;;5.60;1.15;;;27.90;60.90;;;26.87;29.26;102170.75;5007443;28;20084;-75
2023/05/13 08:29:22;;;;;;;1.63;0.90;;;27.50;60.50;;;26.45;29.90;102160.19;5002420;28;20124;-75
2023/05/13 08:31:49;;;;;;;1.15;0.77;;;27.20;62.50;;;26.79;29.74;102157.94;4994426;28;20045;-76
2023/05/13 08:34:15;;;;;;;1.67;1.00;;;26.90;59.90;;;25.37;30.12;102152.72;4989010;28;20034;-75
2023/05/13 08:36:41;;;;;;;2.25;0.80;;;26.60;62.30;;;25.75;30.49;102145.81;5008418;28;20108;-75
2023/05/13 08:39:07;;;;;;;1.70;1.15;;;26.40;62.50;;;25.78;30.48;102150.91;4994379;28;20594;-75
2023/05/13 08:41:33;;;;;;;1.45;1.10;;;26.10;61.40;;;25.04;30.23;102143.84;5010350;28;20517;-76
2023/05/13 08:44:03;;;;;;;1.13;0.80;;;25.60;61.50;;;24.33;31.47;102130.91;5001131;28;20044;-75
2023/05/13 08:46:33;;;;;;;1.70;0.80;;;25.10;62.60;;;23.55;32.51;102121.97;5000714;28;20459;-75
2023/05/13 08:49:00;;;;;;;1.83;1.13;;;24.70;63.00;;;23.34;32.72;102104.88;5008366;28;20053;-75
2023/05/13 08:51:26;;;;;;;3.15;0.80;;;24.60;62.30;;;23.45;31.69;102109.38;5001907;28;20034;-76
2023/05/13 08:53:53;;;;;;;2.10;0.82;;;24.50;63.60;;;23.39;32.28;102116.13;5010626;28;20034;-75
2023/05/13 08:56:21;;;;;;;5.50;1.10;;;24.40;64.60;;;23.58;32.48;102118.19;5024225;28;20029;-75
2023/05/13 08:58:47;;;;;;;2.22;1.25;;;24.40;65.40;;;23.48;32.81;102107.31;5001491;28;20038;-75
2023/05/13 09:01:13;;;;;;;3.03;1.50;;;24.20;64.60;;;23.37;32.88;102109.13;4999622;28;20124;-75
2023/05/13 09:04:03;;;;;;;2.47;1.48;;;24.10;63.90;;;23.07;32.98;102098.00;4994738;28;20112;-75
2023/05/13 09:06:32;;;;;;;1.92;1.50;;;24.10;64.80;;;23.38;32.29;102098.28;5012373;28;20049;-75
2023/05/13 09:08:58;;;;;;;1.73;1.45;;;24.20;65.80;;;23.46;32.70;102103.91;5012782;28;20046;-76
2023/05/13 09:11:25;;;;;;;1.90;1.33;;;24.10;62.70;;;23.13;31.75;102097.53;5005138;28;20029;-75
2023/05/13 09:14:10;;;;;;;1.73;0.98;;;24.20;66.10;;;23.28;31.86;102098.16;5001330;28;20033;-75
2023/05/13 09:16:37;;;;;;;2.88;1.58;;;24.10;62.60;;;23.29;31.61;102102.53;5010862;28;20788;-75
2023/05/13 09:19:07;;;;;;;0.73;0.63;;;24.10;61.60;;;22.90;31.25;102099.28;5012198;28;20041;-75
2023/05/13 09:21:42;;;;;;;0.88;0.80;;;24.00;61.50;;;23.16;31.36;102092.91;5016052;28;20029;-75
2023/05/13 09:24:10;;;;;;;1.00;0.73;;;24.10;63.30;;;23.57;31.38;102104.88;4993349;28;20030;-76
2023/05/13 09:26:37;;;;;;;1.75;1.10;;;24.30;62.40;;;23.73;30.93;102099.97;5012874;28;20034;-75
2023/05/13 09:29:30;;;;;;;2.78;1.25;;;24.40;60.90;;;23.67;29.71;102111.22;4997153;28;20076;-74
2023/05/13 09:32:00;;;;;;;1.73;1.40;;;24.40;60.10;;;23.58;30.34;102103.88;4997769;28;20029;-75
2023/05/13 09:34:44;;;;;;;2.05;1.13;;;24.50;63.60;;;23.86;30.85;102106.09;5025068;28;20026;-75
2023/05/13 09:37:23;;;;;;;1.98;1.20;;;24.50;61.60;;;24.04;30.29;102103.75;5015283;28;20040;-75
2023/05/13 09:39:52;;;;;;;1.27;0.63;;;24.50;58.40;;;23.28;28.79;102106.22;5014511;28;20048;-75
2023/05/13 09:42:21;;;;;;;1.25;0.77;;;24.20;60.00;;;23.08;29.91;102105.06;5015996;28;20553;-75
2023/05/13 09:44:48;;;;;;;1.88;0.70;;;24.00;59.10;;;23.04;29.76;102095.53;5012233;28;20041;-75
2023/05/13 09:47:15;;;;;;;1.00;0.90;;;24.20;61.30;;;23.58;30.01;102101.19;4994354;28;20041;-75
2023/05/13 09:49:44;;;;;;;1.50;1.05;;;24.30;58.90;;;23.61;28.98;102103.66;4998586;28;20528;-76
2023/05/13 09:52:18;;;;;;;2.28;1.15;;;24.30;58.30;;;23.36;29.24;102096.69;5012241;28;20504;-75
2023/05/13 09:54:44;;;;;;;1.95;1.25;;;24.30;59.70;;;23.43;29.55;102097.91;5012070;28;20061;-75
2023/05/13 09:57:12;;;;;;;2.97;1.10;;;24.20;57.90;;;23.24;29.18;102098.50;5004633;28;20454;-74
2023/05/13 09:59:41;;;;;;;1.58;1.08;;;24.20;59.10;;;23.22;29.72;102095.94;5010209;28;20034;-75
2023/05/13 10:02:08;;;;;;;2.95;1.13;;;24.20;59.60;;;23.38;29.42;102094.72;5010445;28;20057;-75
2023/05/13 10:04:34;;;;;;;1.25;0.93;;;24.10;61.00;;;23.41;30.29;102092.66;5011807;28;20041;-75
2023/05/13 10:07:06;;;;;;;2.42;1.10;;;24.30;61.30;;;23.77;30.06;102093.38;4987923;28;20037;-75
2023/05/13 10:09:42;;;;;;;2.80;1.23;;;24.40;58.50;;;23.33;29.37;102090.56;5010926;28;20194;-74
2023/05/13 10:12:16;;;;;;;2.83;1.25;;;24.40;59.20;;;23.31;29.52;102094.38;4983964;28;20042;-75
2023/05/13 10:14:43;;;;;;;1.65;0.93;;;24.30;59.90;;;23.48;29.42;102083.13;5012161;28;20591;-75
2023/05/13 10:17:12;;;;;;;1.45;0.75;;;24.30;59.80;;;23.46;29.36;102087.78;5011846;28;20044;-75